Time;durP1;ratioP1;P1;durP2;ratioP2;P2;SDS_P1;SDS_P2;PMS_P1;PMS_P2;Temp;Humidity;BMP_temperature;BMP_pressure;BME280_temperature;BME280_humidity;BME280_pressure;Samples;Min_cycle;Max_cycle;Signal;HPM_P1;HPM_P2
2022/01/17 00:00:19;;;;;;;14.77;5.00;;;6.60;99.90;;;;;;5062562;28;20605;-79
2022/01/17 00:02:47;;;;;;;14.70;6.50;;;6.60;99.90;;;;;;5071341;28;20131;-79
2022/01/17 00:05:14;;;;;;;15.40;6.25;;;6.60;99.90;;;;;;5069175;28;20167;-79
2022/01/17 00:07:40;;;;;;;18.60;7.65;;;6.60;99.90;;;;;;5068956;28;20068;-79
2022/01/17 00:10:06;;;;;;;13.43;5.85;;;6.90;99.90;;;;;;5074041;28;20036;-79
2022/01/17 00:12:36;;;;;;;12.82;6.85;;;6.70;99.90;;;;;;5075704;28;20045;-79
2022/01/17 00:15:15;;;;;;;14.00;5.97;;;6.70;99.90;;;;;;5068655;28;20652;-78
2022/01/17 00:17:48;;;;;;;14.73;5.63;;;6.80;99.90;;;;;;5067775;28;20044;-78
2022/01/17 00:20:17;;;;;;;18.08;7.75;;;6.70;99.90;;;;;;5067652;28;20044;-79
2022/01/17 00:22:47;;;;;;;13.05;6.68;;;6.70;99.90;;;;;;5067585;28;20036;-79
2022/01/17 00:25:13;;;;;;;15.50;6.93;;;6.20;99.90;;;;;;5065035;28;20519;-80
2022/01/17 00:27:39;;;;;;;16.42;6.68;;;6.90;99.90;;;;;;5062821;28;20052;-79
2022/01/17 00:30:09;;;;;;;14.48;6.53;;;6.90;99.90;;;;;;5072466;28;20530;-79
2022/01/17 00:32:40;;;;;;;9.88;6.07;;;6.60;99.90;;;;;;5066248;28;20044;-81
2022/01/17 00:35:07;;;;;;;12.45;4.97;;;6.10;99.90;;;;;;5071346;28;20056;-79
2022/01/17 00:37:36;;;;;;;9.25;6.43;;;6.90;99.90;;;;;;5069214;28;20595;-79
2022/01/17 00:40:06;;;;;;;13.63;5.63;;;6.90;99.90;;;;;;5069183;28;20079;-79
2022/01/17 00:42:35;;;;;;;14.77;6.07;;;6.80;99.90;;;;;;5067912;28;20053;-79
2022/01/17 00:45:03;;;;;;;16.77;7.50;;;6.80;99.90;;;;;;5072336;28;20771;-79
2022/01/17 00:47:29;;;;;;;18.85;6.95;;;6.70;99.90;;;;;;5070426;28;20166;-79
2022/01/17 00:49:55;;;;;;;14.88;7.63;;;6.40;99.90;;;;;;5068546;28;20044;-80
2022/01/17 00:52:21;;;;;;;13.05;7.07;;;6.80;99.90;;;;;;5069391;28;20511;-79
2022/01/17 00:54:47;;;;;;;18.42;6.60;;;5.60;99.90;;;;;;5068025;28;20089;-79
2022/01/17 00:57:13;;;;;;;15.45;5.97;;;6.20;99.90;;;;;;5066218;28;20131;-79
2022/01/17 00:59:39;;;;;;;12.77;5.75;;;7.00;99.90;;;;;;5066597;28;20041;-80
2022/01/17 01:02:05;;;;;;;11.57;5.68;;;6.70;99.90;;;;;;5063500;28;20060;-79
2022/01/17 01:04:31;;;;;;;14.65;6.45;;;6.70;99.90;;;;;;5069972;28;20482;-78
2022/01/17 01:06:57;;;;;;;14.88;7.07;;;6.80;99.90;;;;;;5066275;28;20482;-78
2022/01/17 01:09:31;;;;;;;14.32;5.18;;;6.80;99.90;;;;;;5066793;28;20052;-79
2022/01/17 01:12:00;;;;;;;16.23;6.13;;;6.90;99.90;;;;;;5066224;28;20048;-79
2022/01/17 01:14:26;;;;;;;17.58;6.00;;;6.80;99.90;;;;;;5072943;28;20040;-79
2022/01/17 01:16:57;;;;;;;13.35;5.80;;;6.80;99.90;;;;;;5068805;28;20041;-80
2022/01/17 01:27:40;;;;;;;9.48;5.30;;;6.20;99.90;;;;;;5069927;28;20103;-79
2022/01/17 01:27:46;;;;;;;10.18;4.70;;;6.90;99.90;;;;;;5067258;28;20037;-80
2022/01/17 01:30:19;;;;;;;14.00;6.40;;;6.90;99.90;;;;;;5065303;28;20044;-79
2022/01/17 01:32:56;;;;;;;13.32;6.43;;;6.90;99.90;;;;;;5066191;28;20182;-80
2022/01/17 01:35:31;;;;;;;15.35;6.13;;;6.90;99.90;;;;;;5068736;28;20043;-79
2022/01/17 01:38:05;;;;;;;22.30;6.78;;;6.60;99.90;;;;;;5070669;28;20049;-79
2022/01/17 01:40:34;;;;;;;12.88;6.38;;;6.90;99.90;;;;;;5066589;28;20507;-79
2022/01/17 01:43:05;;;;;;;16.10;6.47;;;8.80;99.90;;;;;;5066063;28;20044;-79
2022/01/17 01:45:36;;;;;;;19.30;7.28;;;6.90;99.90;;;;;;5070740;28;20033;-80
2022/01/17 01:48:05;;;;;;;13.85;7.03;;;7.20;99.90;;;;;;5067045;28;20136;-79
2022/01/17 01:50:31;;;;;;;12.32;6.28;;;8.10;99.90;;;;;;5070238;28;20036;-80
2022/01/17 01:52:59;;;;;;;12.40;5.75;;;7.00;99.90;;;;;;5072929;28;20051;-80
2022/01/17 01:55:26;;;;;;;19.63;7.55;;;7.00;99.90;;;;;;5070207;28;20285;-80
2022/01/17 01:57:52;;;;;;;19.02;7.97;;;7.20;99.90;;;;;;5069476;28;20082;-80
2022/01/17 02:00:18;;;;;;;18.20;7.50;;;7.60;99.90;;;;;;5065944;28;20106;-79
2022/01/17 02:02:47;;;;;;;19.67;8.07;;;7.00;99.90;;;;;;5073149;28;20075;-79
2022/01/17 02:05:13;;;;;;;18.77;7.68;;;6.60;99.90;;;;;;5072294;28;20053;-79
2022/01/17 02:07:43;;;;;;;16.98;6.32;;;7.10;99.90;;;;;;5071734;28;20514;-80
2022/01/17 02:10:10;;;;;;;18.48;5.97;;;7.10;99.90;;;;;;5061242;28;20103;-79
2022/01/17 02:12:40;;;;;;;15.45;6.03;;;7.00;99.90;;;;;;5070295;28;20048;-79
2022/01/17 02:15:23;;;;;;;17.40;6.43;;;7.20;99.90;;;;;;5070499;28;20516;-80
2022/01/17 02:17:57;;;;;;;14.35;7.18;;;7.10;99.90;;;;;;5055944;28;20055;-79
2022/01/17 02:20:24;;;;;;;18.52;5.68;;;7.10;99.90;;;;;;5073038;28;20538;-79
2022/01/17 02:22:54;;;;;;;11.68;6.47;;;7.00;99.90;;;;;;5072271;28;20519;-79
2022/01/17 02:25:29;;;;;;;16.92;5.25;;;7.10;99.90;;;;;;5071688;28;20052;-80
2022/01/17 02:27:55;;;;;;;12.20;6.85;;;7.20;99.90;;;;;;5071650;28;20060;-79
2022/01/17 02:30:26;;;;;;;14.68;5.43;;;7.10;99.90;;;;;;5068724;28;20041;-79
2022/01/17 02:32:52;;;;;;;11.80;5.30;;;7.10;99.90;;;;;;5069341;28;20067;-79
2022/01/17 02:35:23;;;;;;;18.95;7.35;;;6.50;99.90;;;;;;5074378;28;20519;-80
2022/01/17 02:37:49;;;;;;;19.95;7.88;;;7.10;99.90;;;;;;5072298;28;20045;-79
2022/01/17 02:40:20;;;;;;;13.88;7.25;;;7.20;99.90;;;;;;5071299;28;20104;-80
2022/01/17 02:43:17;;;;;;;18.90;5.70;;;7.70;99.90;;;;;;5069591;28;20052;-79
2022/01/17 02:46:28;;;;;;;15.73;5.40;;;7.00;99.90;;;;;;5067834;28;20052;-80
2022/01/17 02:48:38;;;;;;;14.38;5.90;;;7.20;99.90;;;;;;5068984;28;20459;-80
2022/01/17 02:51:05;;;;;;;18.02;7.32;;;7.20;99.90;;;;;;5065541;28;20171;-80
2022/01/17 02:53:32;;;;;;;12.00;5.88;;;7.20;99.90;;;;;;5070696;28;20115;-79
2022/01/17 02:56:00;;;;;;;11.13;5.13;;;7.30;99.90;;;;;;5069796;28;20036;-79
2022/01/17 02:58:28;;;;;;;13.00;4.32;;;6.80;99.90;;;;;;5073536;28;20574;-79
2022/01/17 03:00:57;;;;;;;17.75;7.32;;;7.10;99.90;;;;;;5074313;28;20032;-79
2022/01/17 03:03:28;;;;;;;12.60;5.68;;;7.40;99.90;;;;;;5074080;28;20143;-80
2022/01/17 03:05:58;;;;;;;14.15;5.85;;;7.20;99.90;;;;;;5071878;28;20051;-80
2022/01/17 03:08:27;;;;;;;11.85;6.28;;;7.40;99.90;;;;;;5067886;28;20033;-79
2022/01/17 03:10:55;;;;;;;10.25;5.10;;;7.10;99.90;;;;;;5072871;28;20040;-78
2022/01/17 03:13:32;;;;;;;18.35;5.45;;;7.30;99.90;;;;;;5066465;28;20068;-79
2022/01/17 03:16:00;;;;;;;12.80;6.70;;;7.00;99.90;;;;;;5072316;28;20061;-79
2022/01/17 03:18:32;;;;;;;10.55;5.07;;;6.30;99.90;;;;;;5070805;28;20913;-78
2022/01/17 03:21:00;;;;;;;15.05;5.03;;;7.00;99.90;;;;;;5071876;28;20045;-79
2022/01/17 03:23:28;;;;;;;12.82;6.18;;;7.00;99.90;;;;;;5068544;28;20564;-79
2022/01/17 03:25:55;;;;;;;14.07;5.25;;;7.10;99.90;;;;;;5075862;28;20045;-79
2022/01/17 03:28:23;;;;;;;17.23;7.20;;;7.10;99.90;;;;;;5075522;28;20120;-78
2022/01/17 03:30:49;;;;;;;14.20;5.88;;;6.80;99.90;;;;;;5070188;28;20036;-78
2022/01/17 03:33:20;;;;;;;13.60;6.40;;;5.80;99.90;;;;;;5074009;28;20048;-80
2022/01/17 03:35:53;;;;;;;14.00;6.63;;;7.20;99.90;;;;;;5069544;28;20040;-79
2022/01/17 03:38:23;;;;;;;13.80;4.93;;;7.10;99.90;;;;;;5075385;28;20056;-79
2022/01/17 03:40:52;;;;;;;9.82;5.15;;;7.20;99.90;;;;;;5068622;28;20037;-79
2022/01/17 03:43:20;;;;;;;14.77;5.28;;;7.10;99.90;;;;;;5074682;28;20036;-79
2022/01/17 03:45:50;;;;;;;20.63;7.43;;;7.30;99.90;;;;;;5067192;28;20056;-80
2022/01/17 03:48:18;;;;;;;16.70;5.70;;;7.30;99.90;;;;;;5074021;28;20131;-79
2022/01/17 03:50:44;;;;;;;12.60;5.40;;;7.10;99.90;;;;;;5073956;28;20067;-79
2022/01/17 03:53:13;;;;;;;16.75;9.70;;;7.20;99.90;;;;;;5071519;28;20044;-79
2022/01/17 03:55:45;;;;;;;17.67;6.53;;;6.00;99.90;;;;;;5065196;28;20099;-79
2022/01/17 03:58:11;;;;;;;11.50;5.22;;;7.20;99.90;;;;;;5068035;28;20056;-79
2022/01/17 04:00:43;;;;;;;16.30;5.78;;;6.70;99.90;;;;;;5071290;28;20040;-80
2022/01/17 04:03:23;;;;;;;15.13;6.15;;;7.40;99.90;;;;;;5073196;28;20045;-79
2022/01/17 04:05:49;;;;;;;14.73;5.88;;;8.10;99.90;;;;;;5072658;28;20045;-80
2022/01/17 04:08:15;;;;;;;13.18;6.35;;;7.10;99.90;;;;;;5067995;28;20523;-80
2022/01/17 04:10:41;;;;;;;14.38;5.35;;;7.20;99.90;;;;;;5073138;28;20041;-79
2022/01/17 04:13:09;;;;;;;13.05;5.43;;;7.20;99.90;;;;;;5072371;28;20573;-79
2022/01/17 04:15:38;;;;;;;13.57;6.05;;;7.20;99.90;;;;;;5069820;28;20044;-79
2022/01/17 04:18:12;;;;;;;20.27;7.20;;;6.30;99.90;;;;;;5072187;28;20553;-79
2022/01/17 04:20:42;;;;;;;18.77;6.97;;;6.70;99.90;;;;;;5062703;28;20037;-79
2022/01/17 04:23:11;;;;;;;15.90;6.13;;;7.50;99.90;;;;;;5075027;28;20062;-79
2022/01/17 04:25:39;;;;;;;13.48;6.13;;;7.30;99.90;;;;;;5070836;28;20596;-79
2022/01/17 04:28:09;;;;;;;22.48;7.18;;;7.50;99.90;;;;;;5069389;28;20048;-80
2022/01/17 04:30:37;;;;;;;17.77;6.30;;;7.30;99.90;;;;;;5069049;28;20062;-80
2022/01/17 04:33:06;;;;;;;19.55;6.93;;;7.50;99.90;;;;;;5073656;28;20051;-79
2022/01/17 04:35:36;;;;;;;15.00;7.15;;;7.40;99.90;;;;;;5073138;28;20037;-79
2022/01/17 04:38:13;;;;;;;18.88;7.95;;;7.40;99.90;;;;;;5088012;27;20048;-79
2022/01/17 04:40:40;;;;;;;21.27;6.30;;;7.50;99.90;;;;;;5071453;28;20202;-80
2022/01/17 04:45:57;;;;;;;17.10;6.07;;;7.40;99.90;;;;;;5051564;28;20558;-79
2022/01/17 04:48:26;;;;;;;18.45;7.38;;;6.40;99.90;;;;;;5069618;28;20064;-79
2022/01/17 04:50:52;;;;;;;18.42;6.97;;;7.50;99.90;;;;;;5069978;28;20041;-79
2022/01/17 04:53:20;;;;;;;14.80;6.00;;;8.40;99.90;;;;;;5064779;28;20044;-79
2022/01/17 04:55:47;;;;;;;15.68;6.90;;;8.70;99.90;;;;;;5066650;28;20657;-80
2022/01/17 04:58:14;;;;;;;14.20;6.95;;;7.50;99.90;;;;;;5078938;27;20047;-79
2022/01/17 05:00:46;;;;;;;13.50;6.38;;;7.50;99.90;;;;;;5065690;28;20040;-80
2022/01/17 05:03:21;;;;;;;26.17;7.43;;;7.90;99.90;;;;;;5068326;28;20045;-79
2022/01/17 05:05:48;;;;;;;16.95;5.60;;;7.40;99.90;;;;;;5066765;28;20041;-79
2022/01/17 05:08:15;;;;;;;18.58;6.72;;;7.40;99.90;;;;;;5068265;28;20040;-80
2022/01/17 05:10:47;;;;;;;11.60;5.45;;;7.50;99.90;;;;;;5070833;28;20047;-79
2022/01/17 05:13:20;;;;;;;9.50;4.82;;;7.30;99.90;;;;;;5068660;28;20045;-80
2022/01/17 05:15:53;;;;;;;10.05;5.13;;;7.30;99.90;;;;;;5067281;28;20046;-79
2022/01/17 05:21:07;;;;;;;20.27;7.20;;;7.30;99.90;;;;;;5058939;28;20060;-80
2022/01/17 05:23:34;;;;;;;19.95;8.23;;;7.40;99.90;;;;;;5071906;28;20041;-79
2022/01/17 05:26:02;;;;;;;12.68;5.40;;;6.20;99.90;;;;;;5068283;28;20049;-80
2022/01/17 05:28:28;;;;;;;14.65;5.57;;;7.70;99.90;;;;;;5067191;28;20072;-79
2022/01/17 05:30:54;;;;;;;13.38;5.68;;;7.20;99.90;;;;;;5069075;28;20589;-79
2022/01/17 05:33:20;;;;;;;11.82;5.55;;;8.30;99.90;;;;;;5076281;28;20070;-79
2022/01/17 05:35:49;;;;;;;17.17;5.97;;;7.20;99.90;;;;;;5072615;28;20127;-79
2022/01/17 05:38:20;;;;;;;10.95;5.55;;;7.80;99.90;;;;;;5066195;28;20577;-79
2022/01/17 05:40:51;;;;;;;16.90;6.60;;;7.20;99.90;;;;;;5071592;28;20049;-79
2022/01/17 05:43:17;;;;;;;12.13;6.82;;;7.50;99.90;;;;;;5067925;28;20076;-79
2022/01/17 05:45:46;;;;;;;10.75;5.43;;;7.40;99.90;;;;;;5069118;28;20205;-79
2022/01/17 05:48:14;;;;;;;12.80;5.90;;;7.40;99.90;;;;;;5071828;28;20053;-78
2022/01/17 05:50:50;;;;;;;12.00;5.22;;;7.30;99.90;;;;;;5071568;28;20099;-78
2022/01/17 05:53:25;;;;;;;10.45;5.05;;;7.10;99.90;;;;;;5076060;28;20041;-80
2022/01/17 05:55:55;;;;;;;18.40;5.72;;;7.20;99.90;;;;;;5072916;28;20045;-79
2022/01/17 05:58:21;;;;;;;14.35;6.32;;;7.20;99.90;;;;;;5070268;28;20163;-79
2022/01/17 06:00:51;;;;;;;15.48;5.07;;;7.30;99.90;;;;;;5073932;28;20079;-88
2022/01/17 06:03:18;;;;;;;15.43;6.10;;;7.40;99.90;;;;;;5071368;28;20044;-79
2022/01/17 06:05:46;;;;;;;13.55;5.45;;;7.40;99.90;;;;;;5070151;28;20037;-80
2022/01/17 06:08:12;;;;;;;16.98;6.90;;;7.90;99.90;;;;;;5070160;28;20543;-74
2022/01/17 06:10:40;;;;;;;11.70;5.32;;;7.20;99.90;;;;;;5066908;28;20045;-80
2022/01/17 06:13:14;;;;;;;11.73;5.90;;;7.20;99.90;;;;;;5069710;28;20519;-79
2022/01/17 06:15:46;;;;;;;13.02;5.60;;;7.50;99.90;;;;;;5069404;28;20032;-79
2022/01/17 06:18:17;;;;;;;10.30;4.50;;;8.40;99.90;;;;;;5071797;28;20093;-78
2022/01/17 06:20:43;;;;;;;9.00;4.45;;;7.30;99.90;;;;;;5072697;28;20519;-78
2022/01/17 06:23:12;;;;;;;11.75;5.60;;;8.50;99.90;;;;;;5070241;28;20052;-80
2022/01/17 06:25:40;;;;;;;12.13;5.47;;;7.30;99.90;;;;;;5069949;28;20117;-77
2022/01/17 06:28:09;;;;;;;12.40;5.93;;;7.30;99.90;;;;;;5068981;28;20070;-77
2022/01/17 06:30:36;;;;;;;14.48;5.85;;;7.30;99.90;;;;;;5068171;28;20049;-77
2022/01/17 06:33:03;;;;;;;14.93;5.40;;;7.20;99.90;;;;;;5070342;28;20083;-77
2022/01/17 06:35:29;;;;;;;12.68;4.90;;;7.20;99.90;;;;;;5067659;28;20067;-77
2022/01/17 06:37:55;;;;;;;10.57;4.97;;;7.20;99.90;;;;;;5068812;28;20055;-77
2022/01/17 06:40:21;;;;;;;10.82;5.63;;;7.10;99.90;;;;;;5069863;28;20032;-77
2022/01/17 06:42:47;;;;;;;19.70;5.22;;;7.20;99.90;;;;;;5068844;28;20128;-77
2022/01/17 06:45:14;;;;;;;12.27;4.00;;;7.20;99.90;;;;;;5071843;28;20048;-79
2022/01/17 06:47:43;;;;;;;11.32;4.38;;;7.20;99.90;;;;;;5070950;28;20037;-86
2022/01/17 06:50:09;;;;;;;13.70;5.80;;;7.20;99.90;;;;;;5064999;28;20136;-81
2022/01/17 06:52:35;;;;;;;15.18;5.88;;;7.10;99.90;;;;;;5068796;28;20052;-79
2022/01/17 06:55:01;;;;;;;10.82;4.97;;;7.30;99.90;;;;;;5070270;28;20056;-79
2022/01/17 06:57:30;;;;;;;13.23;4.60;;;7.10;99.90;;;;;;5076052;28;20174;-81
2022/01/17 06:59:56;;;;;;;12.68;4.65;;;7.20;99.90;;;;;;5070264;28;20068;-79
2022/01/17 07:02:22;;;;;;;11.95;4.68;;;7.20;99.90;;;;;;5070458;28;20052;-79
2022/01/17 07:04:47;;;;;;;11.23;4.30;;;7.20;99.90;;;;;;5075152;28;20052;-79
2022/01/17 07:07:13;;;;;;;10.95;5.85;;;7.20;99.90;;;;;;5072409;28;20080;-78
2022/01/17 07:09:39;;;;;;;7.03;4.10;;;7.20;99.90;;;;;;5071600;28;20561;-78
2022/01/17 07:12:05;;;;;;;9.32;3.55;;;7.20;99.90;;;;;;5070805;28;20581;-77
2022/01/17 07:14:32;;;;;;;9.23;3.65;;;7.20;99.90;;;;;;5068451;28;20120;-78
2022/01/17 07:16:58;;;;;;;11.60;4.65;;;7.20;99.90;;;;;;5071212;28;20098;-78
2022/01/17 07:19:24;;;;;;;12.70;5.10;;;7.20;99.90;;;;;;5071402;28;20044;-81
2022/01/17 07:21:51;;;;;;;14.32;4.88;;;7.30;99.90;;;;;;5065726;28;20126;-81
2022/01/17 07:24:17;;;;;;;11.77;4.97;;;7.30;99.90;;;;;;5064529;28;20041;-79
2022/01/17 07:26:43;;;;;;;12.27;4.60;;;7.20;99.90;;;;;;5069281;28;20476;-79
2022/01/17 07:29:09;;;;;;;10.95;4.22;;;7.20;99.90;;;;;;5067442;28;20064;-79
2022/01/17 07:31:36;;;;;;;11.32;3.28;;;7.20;99.90;;;;;;5069781;28;20127;-79
2022/01/17 07:34:07;;;;;;;7.68;4.40;;;7.20;99.90;;;;;;5076728;28;20047;-79
2022/01/17 07:36:33;;;;;;;10.65;4.43;;;7.20;99.90;;;;;;5071747;28;20562;-79
2022/01/17 07:38:59;;;;;;;7.25;3.17;;;7.20;99.90;;;;;;5070808;28;20144;-79
2022/01/17 07:41:25;;;;;;;7.15;3.83;;;7.20;99.90;;;;;;5066237;28;20051;-79
2022/01/17 07:43:52;;;;;;;11.30;4.38;;;7.20;99.90;;;;;;5071261;28;20102;-81
2022/01/17 07:47:05;;;;;;;11.65;4.38;;;7.20;99.90;;;;;;5068331;28;20040;-79
2022/01/17 07:49:13;;;;;;;9.45;4.45;;;7.60;99.90;;;;;;5057581;28;20044;-79
2022/01/17 07:51:43;;;;;;;9.43;4.43;;;7.20;99.90;;;;;;5068393;28;20468;-79
2022/01/17 07:54:11;;;;;;;13.73;4.78;;;7.20;99.90;;;;;;5064214;28;20052;-79
2022/01/17 07:56:38;;;;;;;11.30;4.90;;;7.30;99.90;;;;;;5064862;28;20037;-79
2022/01/17 07:59:04;;;;;;;9.43;4.32;;;7.20;99.90;;;;;;5068565;28;20040;-79
2022/01/17 08:01:31;;;;;;;9.63;3.67;;;7.20;99.90;;;;;;5074840;28;20498;-78
2022/01/17 08:03:56;;;;;;;9.57;3.95;;;7.20;99.90;;;;;;5067158;28;20102;-78
2022/01/17 08:06:22;;;;;;;7.43;3.38;;;7.20;99.90;;;;;;5067790;28;20530;-79
2022/01/17 08:08:48;;;;;;;11.73;4.22;;;7.20;99.90;;;;;;5069633;28;20045;-78
2022/01/17 08:11:15;;;;;;;10.68;4.65;;;7.30;99.90;;;;;;5059811;28;20122;-78
2022/01/17 08:13:41;;;;;;;7.72;4.03;;;7.30;99.90;;;;;;5066633;28;20482;-78
2022/01/17 08:16:07;;;;;;;9.45;3.78;;;7.30;99.90;;;;;;5072328;28;20684;-78
2022/01/17 08:18:33;;;;;;;7.95;3.28;;;7.30;99.90;;;;;;5071578;28;20043;-79
2022/01/17 08:20:59;;;;;;;6.32;3.90;;;7.30;99.90;;;;;;5063676;28;20049;-78
2022/01/17 08:23:25;;;;;;;13.43;4.22;;;7.30;99.90;;;;;;5066439;28;20047;-78
2022/01/17 08:25:51;;;;;;;10.40;4.80;;;7.30;99.90;;;;;;5063683;28;20080;-78
2022/01/17 08:28:17;;;;;;;9.27;4.80;;;7.30;99.90;;;;;;5066951;28;20037;-79
2022/01/17 08:30:43;;;;;;;22.00;9.38;;;7.30;99.90;;;;;;5069774;28;20045;-78
2022/01/17 08:33:09;;;;;;;23.48;8.77;;;7.30;99.90;;;;;;5066101;28;20053;-78
2022/01/17 08:35:35;;;;;;;18.40;6.72;;;7.40;99.90;;;;;;5061830;28;20091;-78
2022/01/17 08:38:00;;;;;;;11.48;6.20;;;7.40;99.90;;;;;;5066059;28;20078;-78
2022/01/17 08:40:27;;;;;;;10.77;4.55;;;7.50;99.90;;;;;;5075548;28;20126;-78
2022/01/17 08:42:53;;;;;;;8.90;3.97;;;7.50;99.90;;;;;;5073621;28;20125;-78
2022/01/17 08:45:21;;;;;;;11.88;3.85;;;7.50;99.90;;;;;;5071754;28;20771;-79
2022/01/17 08:47:49;;;;;;;9.50;4.30;;;7.60;99.90;;;;;;5068814;28;20048;-78
2022/01/17 08:50:17;;;;;;;12.52;3.85;;;7.60;99.90;;;;;;5063936;28;20045;-78
2022/01/17 08:52:46;;;;;;;9.55;4.90;;;7.60;99.90;;;;;;5063363;28;20048;-78
2022/01/17 08:55:13;;;;;;;7.88;4.47;;;7.60;99.90;;;;;;5067216;28;20103;-79
2022/01/17 08:57:39;;;;;;;11.20;3.92;;;7.60;99.90;;;;;;5069084;28;20047;-79
2022/01/17 09:00:08;;;;;;;8.60;4.28;;;7.70;99.90;;;;;;5070170;28;20043;-78
2022/01/17 09:02:34;;;;;;;8.05;3.22;;;7.60;99.90;;;;;;5067598;28;20047;-79
2022/01/17 09:05:00;;;;;;;8.88;3.50;;;7.70;99.90;;;;;;5062554;28;20037;-78
2022/01/17 09:07:26;;;;;;;10.98;3.70;;;7.70;99.90;;;;;;5071169;28;20526;-79
2022/01/17 09:09:51;;;;;;;8.85;3.83;;;7.80;99.90;;;;;;5066256;28;21178;-78
2022/01/17 09:12:17;;;;;;;9.20;4.25;;;7.80;99.90;;;;;;5071877;28;20040;-79
2022/01/17 09:14:43;;;;;;;12.65;4.93;;;7.80;99.90;;;;;;5068095;28;20064;-79
2022/01/17 09:17:10;;;;;;;16.00;5.63;;;7.90;99.90;;;;;;5066425;28;20064;-78
2022/01/17 09:19:41;;;;;;;41.30;12.00;;;7.90;99.90;;;;;;5077666;28;20051;-79
2022/01/17 09:22:08;;;;;;;21.63;6.60;;;7.90;99.90;;;;;;5064784;28;20575;-79
2022/01/17 09:24:35;;;;;;;13.18;4.80;;;7.90;99.90;;;;;;5075329;28;20039;-79
2022/01/17 09:27:02;;;;;;;10.77;5.00;;;7.90;99.90;;;;;;5073613;28;20523;-79
2022/01/17 09:29:27;;;;;;;9.95;4.38;;;7.80;99.90;;;;;;5071329;28;20043;-79
2022/01/17 09:31:53;;;;;;;11.15;5.40;;;7.80;99.90;;;;;;5076938;28;20052;-78
2022/01/17 09:34:19;;;;;;;12.82;4.95;;;7.80;99.90;;;;;;5076141;28;20132;-79
2022/01/17 09:36:45;;;;;;;6.97;4.03;;;7.80;99.90;;;;;;5066683;28;20055;-79
2022/01/17 09:39:10;;;;;;;13.50;5.05;;;7.80;99.90;;;;;;5065211;28;20439;-78
2022/01/17 09:41:36;;;;;;;7.80;4.15;;;7.80;99.90;;;;;;5065411;28;20503;-79
2022/01/17 09:44:05;;;;;;;10.27;3.83;;;7.90;99.90;;;;;;5061801;28;20033;-78
2022/01/17 09:46:37;;;;;;;13.85;6.43;;;8.00;99.90;;;;;;5065213;28;20049;-79
2022/01/17 09:49:14;;;;;;;22.23;6.47;;;8.00;99.90;;;;;;5069003;28;20056;-79
2022/01/17 09:54:32;;;;;;;10.40;6.75;;;8.30;99.90;;;;;;5068774;28;20045;-79
2022/01/17 09:56:59;;;;;;;10.02;4.22;;;8.10;99.90;;;;;;5065060;28;20052;-79
2022/01/17 09:59:25;;;;;;;10.75;4.97;;;8.10;99.90;;;;;;5066286;28;20037;-79
2022/01/17 10:01:51;;;;;;;9.30;4.80;;;8.10;99.90;;;;;;5066869;28;20714;-79
2022/01/17 10:04:17;;;;;;;7.07;4.80;;;8.20;99.90;;;;;;5067517;28;20041;-79
2022/01/17 10:06:54;;;;;;;12.68;5.85;;;8.30;99.90;;;;;;5069920;28;20483;-79
2022/01/17 10:09:22;;;;;;;9.88;4.30;;;8.30;99.90;;;;;;5066154;28;20045;-79
2022/01/17 10:12:17;;;;;;;17.95;7.38;;;8.40;99.90;;;;;;5061589;28;20071;-79
2022/01/17 10:14:56;;;;;;;10.77;4.68;;;8.40;99.90;;;;;;5051585;28;20078;-79
2022/01/17 10:17:22;;;;;;;8.93;4.22;;;8.40;99.90;;;;;;5066994;28;20050;-79
2022/01/17 10:19:59;;;;;;;6.35;4.03;;;8.30;99.90;;;;;;5069121;28;20069;-79
2022/01/17 10:22:33;;;;;;;7.43;4.00;;;8.40;99.90;;;;;;5070133;28;20044;-79
2022/01/17 10:28:12;;;;;;;8.07;3.78;;;8.40;99.90;;;;;;5063017;28;20044;-78
2022/01/17 10:35:57;;;;;;;11.23;5.10;;;8.30;99.90;;;;;;5067254;28;20092;-79
2022/01/17 10:38:24;;;;;;;7.65;4.05;;;8.30;99.90;;;;;;5072951;28;20040;-79
2022/01/17 10:41:01;;;;;;;7.75;3.30;;;8.40;99.90;;;;;;5070322;28;20558;-79
2022/01/17 10:43:36;;;;;;;6.60;3.53;;;8.40;99.90;;;;;;5068066;28;20099;-79
2022/01/17 10:46:07;;;;;;;8.20;4.43;;;8.40;99.90;;;;;;5072262;28;20594;-79
2022/01/17 10:48:36;;;;;;;5.47;2.33;;;8.40;99.90;;;;;;5074695;28;20045;-79
2022/01/17 10:51:04;;;;;;;6.82;4.03;;;8.40;99.90;;;;;;5063882;28;20112;-79
2022/01/17 10:53:30;;;;;;;7.00;4.15;;;8.50;99.90;;;;;;5074128;28;20039;-79
2022/01/17 10:55:57;;;;;;;5.65;3.17;;;8.50;99.90;;;;;;5075461;28;20044;-79
2022/01/17 10:58:29;;;;;;;9.35;4.20;;;8.60;99.90;;;;;;5074811;28;20481;-79
2022/01/17 11:00:57;;;;;;;;;;;8.60;99.90;;;;;;5066126;28;20043;-78
2022/01/17 11:03:30;;;;;;;5.05;2.55;;;8.60;99.90;;;;;;5069891;28;20444;-79
2022/01/17 11:05:58;;;;;;;10.18;4.72;;;8.60;99.90;;;;;;5071675;28;20150;-79
2022/01/17 11:08:27;;;;;;;7.55;3.00;;;8.70;99.90;;;;;;5068041;28;20045;-78
2022/01/17 11:10:56;;;;;;;6.28;3.47;;;8.70;99.90;;;;;;5061551;28;20055;-78
2022/01/17 11:13:25;;;;;;;5.75;3.17;;;8.70;99.90;;;;;;5064312;28;20132;-79
2022/01/17 11:15:58;;;;;;;11.43;4.45;;;8.70;99.90;;;;;;5067392;28;20075;-79
2022/01/17 11:18:27;;;;;;;10.75;4.57;;;8.80;99.90;;;;;;5075536;28;20048;-79
2022/01/17 11:21:10;;;;;;;6.57;3.35;;;8.80;99.90;;;;;;5071184;28;20061;-79
2022/01/17 11:23:43;;;;;;;10.38;4.07;;;8.90;99.90;;;;;;5072468;28;20076;-79
2022/01/17 11:26:10;;;;;;;5.25;3.22;;;8.90;99.90;;;;;;5064543;28;20045;-79
2022/01/17 11:28:37;;;;;;;9.75;4.47;;;8.90;99.90;;;;;;5070319;28;20044;-79
2022/01/17 11:31:08;;;;;;;8.52;4.20;;;8.90;99.90;;;;;;5075932;28;20048;-78
2022/01/17 11:33:35;;;;;;;10.32;4.45;;;8.90;99.90;;;;;;5070746;28;20044;-78
2022/01/17 11:36:01;;;;;;;9.13;4.80;;;9.00;99.90;;;;;;5075570;28;20106;-78
2022/01/17 11:38:34;;;;;;;8.18;3.75;;;9.00;99.90;;;;;;5068230;28;20043;-78
2022/01/17 11:41:01;;;;;;;9.43;4.40;;;9.00;99.90;;;;;;5074296;28;20052;-78
2022/01/17 11:43:36;;;;;;;7.60;3.78;;;9.00;99.90;;;;;;5066352;28;20044;-78
2022/01/17 11:46:17;;;;;;;8.10;3.97;;;8.90;99.90;;;;;;5065357;28;20476;-79
2022/01/17 11:48:50;;;;;;;8.45;4.95;;;9.00;99.90;;;;;;5070020;28;20044;-79
2022/01/17 11:51:16;;;;;;;14.70;6.07;;;9.10;99.90;;;;;;5062459;28;20045;-79
2022/01/17 11:53:46;;;;;;;11.88;6.00;;;9.10;99.90;;;;;;5070839;28;20515;-79
2022/01/17 11:56:15;;;;;;;9.10;5.22;;;9.20;99.90;;;;;;5067855;28;20044;-79
2022/01/17 11:58:44;;;;;;;13.45;5.03;;;9.20;99.90;;;;;;5072421;28;20044;-79
2022/01/17 12:01:20;;;;;;;10.63;5.88;;;9.30;99.90;;;;;;5068234;28;20045;-79
2022/01/17 12:03:52;;;;;;;8.55;4.50;;;9.30;99.90;;;;;;5069909;28;20064;-79
2022/01/17 12:06:24;;;;;;;8.90;4.70;;;9.20;99.90;;;;;;5066114;28;20048;-79
2022/01/17 12:09:11;;;;;;;8.70;4.47;;;9.20;99.90;;;;;;5071953;28;20099;-79
2022/01/17 12:11:37;;;;;;;9.73;4.85;;;9.30;99.90;;;;;;5063881;28;20044;-79
2022/01/17 12:14:21;;;;;;;10.20;5.30;;;9.50;99.90;;;;;;5070941;28;20044;-79
2022/01/17 12:16:47;;;;;;;11.23;5.47;;;9.50;99.90;;;;;;5070025;28;20076;-79
2022/01/17 12:19:13;;;;;;;10.48;4.68;;;9.50;99.90;;;;;;5074467;28;20175;-79
2022/01/17 12:21:56;;;;;;;8.75;4.88;;;9.40;99.90;;;;;;5066072;28;20117;-79
2022/01/17 12:24:26;;;;;;;10.95;4.95;;;9.40;99.90;;;;;;5067630;28;20094;-79
2022/01/17 12:26:56;;;;;;;11.98;5.80;;;9.40;99.90;;;;;;5056655;28;20045;-79
2022/01/17 12:29:40;;;;;;;11.70;5.97;;;9.40;99.90;;;;;;5058018;28;20041;-79
2022/01/17 12:32:23;;;;;;;9.65;4.90;;;9.60;99.90;;;;;;5049353;28;20072;-79
2022/01/17 12:34:56;;;;;;;10.13;5.47;;;9.60;99.90;;;;;;5053242;28;20056;-79
2022/01/17 12:37:41;;;;;;;10.70;5.20;;;9.60;99.90;;;;;;5039403;28;20040;-79
2022/01/17 12:40:32;;;;;;;10.93;5.32;;;9.50;99.90;;;;;;5032595;28;20053;-79
2022/01/17 12:42:58;;;;;;;10.30;4.70;;;9.50;99.90;;;;;;5051517;28;20042;-79
2022/01/17 12:45:37;;;;;;;8.77;5.40;;;9.40;99.90;;;;;;5053870;28;20053;-79
2022/01/17 12:48:16;;;;;;;10.07;6.20;;;9.50;99.90;;;;;;5056259;28;20041;-78
2022/01/17 12:50:46;;;;;;;16.33;7.22;;;9.50;99.90;;;;;;5036283;28;20049;-79
2022/01/17 12:53:14;;;;;;;13.52;6.47;;;9.60;99.90;;;;;;5052714;28;20095;-79
2022/01/17 12:55:45;;;;;;;13.90;5.65;;;9.60;99.90;;;;;;5036605;28;20037;-79
2022/01/17 12:58:16;;;;;;;10.52;5.38;;;9.50;99.90;;;;;;5053309;28;20037;-79
2022/01/17 13:00:51;;;;;;;9.43;5.20;;;9.50;99.90;;;;;;5036249;28;20515;-79
2022/01/17 13:03:18;;;;;;;13.43;6.55;;;9.40;99.90;;;;;;5033561;28;20053;-79
2022/01/17 13:05:44;;;;;;;9.45;5.30;;;9.40;99.90;;;;;;5053184;28;20152;-78
2022/01/17 13:08:11;;;;;;;12.02;5.75;;;9.40;99.90;;;;;;5041010;28;20075;-79
2022/01/17 13:10:37;;;;;;;12.50;5.57;;;9.40;99.90;;;;;;5050033;28;20569;-79
2022/01/17 13:13:03;;;;;;;13.93;6.18;;;9.40;99.90;;;;;;5035374;28;20051;-79
2022/01/17 13:15:29;;;;;;;9.80;5.00;;;9.30;99.90;;;;;;5056243;28;20037;-79
2022/01/17 13:17:56;;;;;;;8.32;4.53;;;9.30;99.90;;;;;;5052351;28;20049;-79
2022/01/17 13:20:23;;;;;;;10.82;5.38;;;9.20;99.90;;;;;;5053235;28;20034;-79
2022/01/17 13:22:58;;;;;;;8.48;3.78;;;9.20;99.90;;;;;;5040455;28;20049;-79